Terminal Aerodrome Forecast
Issued by NWS

Home | Current Version | Previous Version | Graphics & Text | Print | Product List | Glossary On
Versions: 1 2 3 4 5 6 7 8 9 10 11 12 13 14 15 16 17 18 19 20 21 22
000
FTUS43 KTOP 300200 AAA
TAFFOE
TAF AMD
KFOE 300253Z 3003/3024 18006KT P6SM SCT050
     FM300400 28009KT P6SM VCTS SCT025 BKN050CB
      TEMPO 3005/3007 5SM -TSRA BKN015CB OVC050
     FM300700 33014G21KT P6SM SCT008 OVC015
     FM302000 36011KT P6SM BKN020=

USA.gov is the U.S. government's official web portal to all federal, state and local government web resources and services.